createdAt,value
2023-04-21T00:01:26.128Z,6.40
2023-04-21T00:03:52.962Z,6.40
2023-04-21T00:06:22.610Z,6.50
2023-04-21T00:08:50.667Z,6.50
2023-04-21T00:11:17.545Z,6.60
2023-04-21T00:13:44.399Z,6.60
2023-04-21T00:16:11.294Z,6.70
2023-04-21T00:18:38.677Z,6.60
2023-04-21T00:21:05.537Z,6.60
2023-04-21T00:23:32.276Z,6.70
2023-04-21T00:26:02.448Z,6.70
2023-04-21T00:28:29.446Z,6.70
2023-04-21T00:30:56.466Z,6.80
2023-04-21T00:33:23.060Z,6.80
2023-04-21T00:35:49.705Z,6.80
2023-04-21T00:38:16.332Z,6.80
2023-04-21T00:40:43.001Z,6.80
2023-04-21T00:43:09.564Z,6.80
2023-04-21T00:45:36.291Z,6.80
2023-04-21T00:48:03.042Z,6.80
2023-04-21T00:50:29.993Z,6.90
2023-04-21T00:52:57.430Z,6.80
2023-04-21T00:55:25.265Z,6.70
2023-04-21T00:57:53.502Z,6.60
2023-04-21T01:00:20.430Z,6.70
2023-04-21T01:02:47.401Z,6.70
2023-04-21T01:05:16.343Z,6.70
2023-04-21T01:07:43.330Z,6.60
2023-04-21T01:10:10.349Z,6.50
2023-04-21T01:12:47.671Z,6.50
2023-04-21T01:15:16.104Z,6.50
2023-04-21T01:17:43.340Z,6.60
2023-04-21T01:20:14.048Z,6.50
2023-04-21T01:22:42.955Z,6.60
2023-04-21T01:25:09.826Z,6.60
2023-04-21T01:27:37.038Z,6.60
2023-04-21T01:30:04.717Z,6.60
2023-04-21T01:32:31.895Z,6.60
2023-04-21T01:34:59.507Z,6.60
2023-04-21T01:37:30.931Z,6.60
2023-04-21T01:40:00.433Z,6.60
2023-04-21T01:42:28.979Z,6.60
2023-04-21T01:44:55.750Z,6.60
2023-04-21T01:47:23.712Z,6.50
2023-04-21T01:49:50.347Z,6.50
2023-04-21T01:52:16.969Z,6.60
2023-04-21T01:54:43.614Z,6.60
2023-04-21T01:57:10.396Z,6.60
2023-04-21T01:59:37.231Z,6.60
2023-04-21T02:02:04.493Z,6.60
2023-04-21T02:04:31.392Z,6.40
2023-04-21T02:06:58.060Z,6.30
2023-04-21T02:09:24.664Z,6.30
2023-04-21T02:11:51.257Z,6.30
2023-04-21T02:14:17.858Z,6.30
2023-04-21T02:16:44.612Z,6.20
2023-04-21T02:19:11.383Z,6.20
2023-04-21T02:21:37.978Z,6.20
2023-04-21T02:24:04.697Z,6.10
2023-04-21T02:26:31.541Z,6.00
2023-04-21T02:28:58.201Z,6.00
2023-04-21T02:31:24.903Z,6.00
2023-04-21T02:33:51.609Z,5.90
2023-04-21T02:36:18.292Z,6.00
2023-04-21T02:38:44.916Z,6.00
2023-04-21T02:41:11.493Z,6.00
2023-04-21T02:43:38.132Z,6.00
2023-04-21T02:46:08.616Z,6.10
2023-04-21T02:48:36.176Z,6.10
2023-04-21T02:51:03.059Z,6.10
2023-04-21T02:53:29.754Z,6.10
2023-04-21T02:55:56.407Z,6.10
2023-04-21T02:58:23.498Z,6.20
2023-04-21T03:00:50.224Z,6.20
2023-04-21T03:03:17.027Z,6.20
2023-04-21T03:05:43.771Z,6.20
2023-04-21T03:08:10.418Z,6.20
2023-04-21T03:10:38.065Z,6.20
2023-04-21T03:13:04.781Z,6.20
2023-04-21T03:15:31.959Z,6.20
2023-04-21T03:17:58.651Z,6.10
2023-04-21T03:20:25.408Z,6.20
2023-04-21T03:22:54.138Z,6.10
2023-04-21T03:25:20.873Z,6.10
2023-04-21T03:27:47.503Z,6.10
2023-04-21T03:30:14.278Z,6.10
2023-04-21T03:32:41.095Z,6.10
2023-04-21T03:35:07.898Z,6.10
2023-04-21T03:37:34.613Z,6.20
2023-04-21T03:40:01.326Z,6.20
2023-04-21T03:42:29.670Z,6.20
2023-04-21T03:44:56.319Z,6.20
2023-04-21T03:47:22.952Z,6.20
2023-04-21T03:49:49.548Z,6.20
2023-04-21T03:52:16.348Z,6.10
2023-04-21T03:54:42.907Z,6.00
2023-04-21T03:57:09.493Z,6.10
2023-04-21T03:59:36.039Z,6.00
2023-04-21T04:02:02.689Z,6.00
2023-04-21T04:04:29.414Z,6.10
2023-04-21T04:06:56.252Z,6.00
2023-04-21T04:09:23.209Z,6.10
2023-04-21T04:11:50.027Z,6.10
2023-04-21T04:14:16.821Z,6.00
2023-04-21T04:16:43.644Z,5.90
2023-04-21T04:19:10.380Z,5.90
2023-04-21T04:21:37.674Z,5.80
2023-04-21T04:24:05.304Z,5.80
2023-04-21T04:26:35.748Z,5.80
2023-04-21T04:29:02.414Z,5.80
2023-04-21T04:31:32.720Z,5.80
2023-04-21T04:33:59.420Z,5.90
2023-04-21T04:36:27.658Z,5.80
2023-04-21T04:38:54.307Z,5.90
2023-04-21T04:41:20.998Z,5.90
2023-04-21T04:43:47.691Z,5.90
2023-04-21T04:46:14.370Z,5.80
2023-04-21T04:48:41.208Z,5.80
2023-04-21T04:51:07.938Z,5.80
2023-04-21T04:53:34.573Z,5.70
2023-04-21T04:56:01.309Z,5.70
2023-04-21T04:58:27.968Z,5.70
2023-04-21T05:00:54.587Z,5.60
2023-04-21T05:03:21.479Z,5.70
2023-04-21T05:05:48.350Z,5.60
2023-04-21T05:08:17.219Z,5.60
2023-04-21T05:10:44.691Z,5.50
2023-04-21T05:13:11.365Z,5.50
2023-04-21T05:15:37.926Z,5.50
2023-04-21T05:18:04.652Z,5.50
2023-04-21T05:20:31.663Z,5.50
2023-04-21T05:22:58.219Z,5.50
2023-04-21T05:25:24.786Z,5.50
2023-04-21T05:27:51.384Z,5.40
2023-04-21T05:30:18.026Z,5.40
2023-04-21T05:32:44.663Z,5.50
2023-04-21T05:35:11.317Z,5.50
2023-04-21T05:37:37.919Z,5.50
2023-04-21T05:40:04.787Z,5.40
2023-04-21T05:42:31.549Z,5.40
2023-04-21T05:44:58.305Z,5.40
2023-04-21T05:47:24.993Z,5.40
2023-04-21T05:49:53.613Z,5.30
2023-04-21T05:52:23.205Z,5.40
2023-04-21T05:54:49.858Z,5.40
2023-04-21T05:57:17.825Z,5.40
2023-04-21T05:59:44.580Z,5.40
2023-04-21T06:02:12.244Z,5.40
2023-04-21T06:04:39.147Z,5.50
2023-04-21T06:07:07.978Z,5.50
2023-04-21T06:09:36.158Z,5.60
2023-04-21T06:12:03.302Z,5.50
2023-04-21T06:14:29.985Z,5.50
2023-04-21T06:16:56.581Z,5.60
2023-04-21T06:19:23.362Z,5.60
2023-04-21T06:21:50.168Z,5.70
2023-04-21T06:24:24.362Z,5.70
2023-04-21T06:26:52.658Z,5.80
2023-04-21T06:29:20.032Z,5.80
2023-04-21T06:31:46.983Z,5.70
2023-04-21T06:34:13.668Z,5.70
2023-04-21T06:36:40.270Z,5.70
2023-04-21T06:39:06.948Z,5.70
2023-04-21T06:41:33.552Z,5.60
2023-04-21T06:44:00.208Z,5.70
2023-04-21T06:46:26.856Z,5.80
2023-04-21T06:48:53.471Z,5.90
2023-04-21T06:51:20.190Z,7.00
2023-04-21T06:53:46.818Z,7.10
2023-04-21T06:56:15.526Z,6.80
2023-04-21T06:58:42.211Z,6.50
2023-04-21T07:01:08.972Z,6.30
2023-04-21T07:03:35.745Z,6.20
2023-04-21T07:06:02.444Z,6.10
2023-04-21T07:08:29.048Z,6.00
2023-04-21T07:10:55.687Z,5.90
2023-04-21T07:13:22.316Z,5.90
2023-04-21T07:15:49.064Z,5.80
2023-04-21T07:18:15.892Z,5.70
2023-04-21T07:20:42.577Z,5.70
2023-04-21T07:23:09.204Z,5.80
2023-04-21T07:25:36.623Z,5.90
2023-04-21T07:28:04.109Z,5.90
2023-04-21T07:30:31.321Z,6.10
2023-04-21T07:32:58.122Z,6.10
2023-04-21T07:35:25.614Z,6.20
2023-04-21T07:37:52.233Z,6.10
2023-04-21T07:40:18.833Z,6.10
2023-04-21T07:42:45.542Z,6.10
2023-04-21T07:45:12.538Z,6.20
2023-04-21T07:47:39.188Z,6.20
2023-04-21T07:50:06.500Z,6.30
2023-04-21T07:52:33.216Z,6.40
2023-04-21T07:54:59.793Z,6.50
2023-04-21T07:57:26.377Z,6.70
2023-04-21T07:59:52.958Z,6.80
2023-04-21T08:02:19.829Z,6.90
2023-04-21T08:04:46.552Z,6.90
2023-04-21T08:07:14.915Z,6.70
2023-04-21T08:09:41.575Z,6.90
2023-04-21T08:12:08.210Z,6.90
2023-04-21T08:14:34.920Z,7.00
2023-04-21T08:17:01.671Z,7.20
2023-04-21T08:19:28.429Z,7.20
2023-04-21T08:21:55.279Z,7.20
2023-04-21T08:24:21.998Z,7.30
2023-04-21T08:26:48.868Z,7.30
2023-04-21T08:29:15.580Z,7.40
2023-04-21T08:31:42.591Z,7.50
2023-04-21T08:34:09.339Z,7.50
2023-04-21T08:36:36.066Z,7.50
2023-04-21T08:39:02.774Z,7.60
2023-04-21T08:41:29.501Z,7.60
2023-04-21T08:43:56.357Z,7.60
2023-04-21T08:46:23.595Z,7.60
2023-04-21T08:48:51.395Z,7.80
2023-04-21T08:51:22.824Z,7.80
2023-04-21T08:53:49.648Z,7.80
2023-04-21T08:56:16.318Z,7.90
2023-04-21T08:58:42.940Z,8.00
2023-04-21T09:01:09.621Z,8.10
2023-04-21T09:03:36.527Z,8.20
2023-04-21T09:06:06.332Z,8.20
2023-04-21T09:08:34.939Z,8.30
2023-04-21T09:11:01.968Z,8.40
2023-04-21T09:13:32.499Z,8.50
2023-04-21T09:16:00.039Z,8.60
2023-04-21T09:18:35.126Z,8.70
2023-04-21T09:21:13.749Z,8.80
2023-04-21T09:23:44.388Z,8.80
2023-04-21T09:26:11.397Z,8.90
2023-04-21T09:28:41.601Z,8.90
2023-04-21T09:31:16.671Z,9.10
2023-04-21T09:36:27.837Z,9.20
2023-04-21T09:39:03.714Z,9.30
2023-04-21T09:41:39.528Z,9.30
2023-04-21T09:44:06.178Z,9.40
2023-04-21T09:46:34.889Z,9.50
2023-04-21T09:49:02.378Z,9.60
2023-04-21T09:51:52.682Z,9.60
2023-04-21T09:56:54.083Z,9.70
2023-04-21T09:59:25.946Z,9.80
2023-04-21T10:01:54.038Z,9.90
2023-04-21T10:04:23.509Z,9.90
2023-04-21T10:06:51.947Z,9.90
2023-04-21T10:09:22.466Z,9.80
2023-04-21T10:11:49.196Z,9.80
2023-04-21T10:14:15.861Z,9.70
2023-04-21T10:16:43.099Z,9.80
2023-04-21T10:19:48.787Z,9.80
2023-04-21T10:22:26.251Z,9.80
2023-04-21T10:24:55.886Z,9.80
2023-04-21T10:27:40.986Z,9.80
2023-04-21T10:30:26.036Z,9.80
2023-04-21T10:33:06.315Z,9.90
2023-04-21T10:36:05.788Z,10.00
2023-04-21T10:38:42.104Z,10.10
2023-04-21T10:41:28.026Z,10.10
2023-04-21T10:43:57.653Z,10.20
2023-04-21T10:46:40.437Z,10.10
2023-04-21T10:49:21.196Z,10.10
2023-04-21T10:52:00.670Z,10.10
2023-04-21T10:54:30.013Z,10.10
2023-04-21T10:56:58.727Z,10.00
2023-04-21T10:59:27.111Z,10.00
2023-04-21T11:01:54.918Z,9.90
2023-04-21T11:04:23.427Z,9.80
2023-04-21T11:07:14.606Z,9.90
2023-04-21T11:09:42.736Z,9.80
2023-04-21T11:12:20.583Z,9.80
2023-04-21T11:14:48.081Z,9.80
2023-04-21T11:17:17.064Z,9.90
2023-04-21T11:19:54.536Z,9.90
2023-04-21T11:22:23.754Z,9.80
2023-04-21T11:24:54.317Z,9.80
2023-04-21T11:27:22.375Z,9.90
2023-04-21T11:29:50.158Z,9.80
2023-04-21T11:32:17.497Z,9.80
2023-04-21T11:34:44.879Z,9.80
2023-04-21T11:37:16.751Z,9.90
2023-04-21T11:39:44.277Z,9.90
2023-04-21T11:42:11.924Z,10.00
2023-04-21T11:44:42.795Z,10.10
2023-04-21T11:47:25.087Z,10.10
2023-04-21T11:49:56.992Z,10.10
2023-04-21T11:52:34.316Z,10.10
2023-04-21T11:55:02.481Z,10.20
2023-04-21T11:57:31.221Z,10.20
2023-04-21T12:00:11.693Z,10.20
2023-04-21T12:02:38.809Z,10.20
2023-04-21T12:05:08.867Z,10.30
2023-04-21T12:07:37.815Z,10.40
2023-04-21T12:10:13.032Z,10.40
2023-04-21T12:12:41.103Z,10.50
2023-04-21T12:15:12.661Z,10.60
2023-04-21T12:17:49.974Z,10.60
2023-04-21T12:20:18.470Z,10.50
2023-04-21T12:22:45.906Z,10.50
2023-04-21T12:25:13.111Z,10.50
2023-04-21T12:27:54.038Z,10.40
2023-04-21T12:30:21.358Z,10.50
2023-04-21T12:32:48.229Z,10.50
2023-04-21T12:35:15.280Z,10.60
2023-04-21T12:37:41.888Z,10.70
2023-04-21T12:40:09.030Z,10.90
2023-04-21T12:42:37.788Z,10.90
2023-04-21T12:45:05.973Z,11.00
2023-04-21T12:47:32.887Z,11.10
2023-04-21T12:49:59.648Z,11.20
2023-04-21T12:52:27.019Z,11.30
2023-04-21T12:54:53.750Z,11.30
2023-04-21T12:57:21.704Z,11.30
2023-04-21T12:59:48.769Z,11.30
2023-04-21T13:02:15.848Z,11.40
2023-04-21T13:04:42.744Z,11.40
2023-04-21T13:07:09.740Z,11.50
2023-04-21T13:09:36.704Z,11.70
2023-04-21T13:12:03.531Z,11.80
2023-04-21T13:14:30.448Z,11.80
2023-04-21T13:16:57.295Z,11.70
2023-04-21T13:19:26.441Z,11.90
2023-04-21T13:21:54.350Z,11.90
2023-04-21T13:24:21.794Z,12.00
2023-04-21T13:26:48.758Z,12.00
2023-04-21T13:29:15.997Z,12.10
2023-04-21T13:31:42.652Z,12.20
2023-04-21T13:34:09.455Z,12.20
2023-04-21T13:36:39.169Z,12.20
2023-04-21T13:39:09.569Z,12.40
2023-04-21T13:41:36.584Z,12.40
2023-04-21T13:44:05.934Z,12.30
2023-04-21T13:46:33.063Z,12.30
2023-04-21T13:49:00.312Z,12.30
2023-04-21T13:51:27.108Z,12.20
2023-04-21T13:53:53.867Z,12.30
2023-04-21T13:56:20.561Z,12.40
2023-04-21T13:58:47.490Z,12.40
2023-04-21T14:01:14.615Z,12.50
2023-04-21T14:03:41.866Z,12.50
2023-04-21T14:06:08.939Z,12.60
2023-04-21T14:08:35.874Z,12.50
2023-04-21T14:11:03.717Z,12.50
2023-04-21T14:13:37.432Z,12.60
2023-04-21T14:16:08.824Z,12.60
2023-04-21T14:18:36.389Z,12.70
2023-04-21T14:21:03.062Z,12.70
2023-04-21T14:23:30.338Z,12.60
2023-04-21T14:25:57.046Z,12.60
2023-04-21T14:28:23.730Z,12.60
2023-04-21T14:30:50.395Z,12.60
2023-04-21T14:33:17.007Z,12.50
2023-04-21T14:35:43.753Z,12.60
2023-04-21T14:38:10.369Z,12.60
2023-04-21T14:40:37.134Z,12.60
2023-04-21T14:43:03.807Z,12.60
2023-04-21T14:45:30.699Z,12.70
2023-04-21T14:47:57.537Z,12.70
2023-04-21T14:50:24.250Z,12.70
2023-04-21T14:52:50.947Z,12.70
2023-04-21T14:55:17.844Z,12.80
2023-04-21T14:57:44.563Z,12.80
2023-04-21T15:00:12.109Z,12.90
2023-04-21T15:02:41.986Z,12.90
2023-04-21T15:05:09.708Z,12.90
2023-04-21T15:07:36.453Z,13.00
2023-04-21T15:10:03.289Z,13.00
2023-04-21T15:12:30.166Z,13.00
2023-04-21T15:14:56.967Z,13.00
2023-04-21T15:17:23.802Z,13.00
2023-04-21T15:19:50.851Z,12.90
2023-04-21T15:22:17.554Z,12.90
2023-04-21T15:24:44.287Z,12.90
2023-04-21T15:27:11.016Z,12.80
2023-04-21T15:29:37.728Z,12.80
2023-04-21T15:32:04.674Z,12.80
2023-04-21T15:34:31.379Z,12.90
2023-04-21T15:36:58.154Z,12.90
2023-04-21T15:39:24.770Z,12.80
2023-04-21T15:41:53.149Z,12.80
2023-04-21T15:44:19.748Z,12.80
2023-04-21T15:46:46.628Z,12.80
2023-04-21T15:49:13.340Z,12.80
2023-04-21T15:51:41.185Z,12.90
2023-04-21T15:54:07.885Z,12.90
2023-04-21T15:56:34.627Z,12.90
2023-04-21T15:59:01.397Z,12.80
2023-04-21T16:01:28.424Z,12.80
2023-04-21T16:03:55.622Z,12.80
2023-04-21T16:06:24.203Z,12.80
2023-04-21T16:08:51.092Z,12.80
2023-04-21T16:11:17.811Z,12.70
2023-04-21T16:13:44.430Z,12.80
2023-04-21T16:16:11.225Z,12.80
2023-04-21T16:18:38.031Z,12.80
2023-04-21T16:21:05.034Z,12.80
2023-04-21T16:23:31.905Z,12.70
2023-04-21T16:25:58.729Z,12.80
2023-04-21T16:28:25.508Z,12.80
2023-04-21T16:30:52.302Z,12.80
2023-04-21T16:33:18.929Z,12.80
2023-04-21T16:35:45.792Z,12.70
2023-04-21T16:38:12.593Z,12.80
2023-04-21T16:40:39.370Z,12.80
2023-04-21T16:43:06.019Z,12.80
2023-04-21T16:45:33.047Z,12.80
2023-04-21T16:47:59.980Z,12.80
2023-04-21T16:50:27.025Z,12.80
2023-04-21T16:52:53.827Z,12.80
2023-04-21T16:55:21.378Z,12.80
2023-04-21T16:57:48.841Z,12.80
2023-04-21T17:00:16.489Z,12.80
2023-04-21T17:02:43.307Z,12.80
2023-04-21T17:05:12.078Z,12.80
2023-04-21T17:07:39.620Z,12.80
2023-04-21T17:10:07.374Z,12.80
2023-04-21T17:12:34.154Z,12.80
2023-04-21T17:15:00.858Z,12.80
2023-04-21T17:17:32.452Z,12.80
2023-04-21T17:19:59.158Z,12.80
2023-04-21T17:22:26.127Z,12.80
2023-04-21T17:24:53.970Z,12.80
2023-04-21T17:27:21.153Z,12.80
2023-04-21T17:29:48.237Z,12.80
2023-04-21T17:32:15.032Z,12.70
2023-04-21T17:34:41.702Z,12.70
2023-04-21T17:37:08.416Z,12.70
2023-04-21T17:39:35.086Z,12.70
2023-04-21T17:42:02.741Z,12.70
2023-04-21T17:44:29.757Z,12.70
2023-04-21T17:46:58.154Z,12.70
2023-04-21T17:49:25.321Z,12.60
2023-04-21T17:51:53.223Z,12.50
2023-04-21T17:54:19.904Z,12.50
2023-04-21T17:56:46.721Z,12.40
2023-04-21T17:59:14.829Z,12.30
2023-04-21T18:01:41.566Z,12.30
2023-04-21T18:04:08.732Z,12.30
2023-04-21T18:06:36.881Z,12.20
2023-04-21T18:09:04.960Z,12.10
2023-04-21T18:11:31.897Z,12.10
2023-04-21T18:13:58.781Z,12.10
2023-04-21T18:16:26.247Z,12.00
2023-04-21T18:18:52.890Z,12.00
2023-04-21T18:21:19.655Z,12.00
2023-04-21T18:23:46.445Z,12.00
2023-04-21T18:26:13.083Z,12.00
2023-04-21T18:28:39.719Z,12.00
2023-04-21T18:31:06.422Z,12.00
2023-04-21T18:33:33.193Z,11.90
2023-04-21T18:35:59.854Z,12.00
2023-04-21T18:38:26.414Z,12.00
2023-04-21T18:40:53.110Z,12.00
2023-04-21T18:43:19.759Z,11.90
2023-04-21T18:45:46.639Z,11.90
2023-04-21T18:48:13.364Z,11.80
2023-04-21T18:50:40.877Z,11.80
2023-04-21T18:53:08.572Z,11.70
2023-04-21T18:55:36.046Z,11.60
2023-04-21T18:58:02.892Z,11.60
2023-04-21T19:00:31.750Z,11.60
2023-04-21T19:03:02.523Z,11.50
2023-04-21T19:05:31.527Z,11.50
2023-04-21T19:07:58.701Z,11.50
2023-04-21T19:10:25.983Z,11.50
2023-04-21T19:12:52.798Z,11.40
2023-04-21T19:15:20.939Z,11.30
2023-04-21T19:17:47.613Z,11.30
2023-04-21T19:20:14.303Z,11.40
2023-04-21T19:22:41.664Z,11.40
2023-04-21T19:25:08.837Z,11.40
2023-04-21T19:27:36.084Z,11.40
2023-04-21T19:30:03.030Z,11.40
2023-04-21T19:32:29.785Z,11.40
2023-04-21T19:34:56.896Z,11.30
2023-04-21T19:37:23.500Z,11.30
2023-04-21T19:39:50.102Z,11.20
2023-04-21T19:42:16.701Z,11.10
2023-04-21T19:44:43.715Z,11.00
2023-04-21T19:47:10.562Z,10.90
2023-04-21T19:49:37.210Z,10.90
2023-04-21T19:52:04.062Z,10.80
2023-04-21T19:54:31.004Z,10.80
2023-04-21T19:56:57.641Z,10.70
2023-04-21T19:59:24.310Z,10.70
2023-04-21T20:01:51.019Z,10.70
2023-04-21T20:04:17.945Z,10.60
2023-04-21T20:06:44.736Z,10.60
2023-04-21T20:09:11.640Z,10.60
2023-04-21T20:11:38.226Z,10.70
2023-04-21T20:14:04.888Z,10.70
2023-04-21T20:16:32.853Z,10.70
2023-04-21T20:18:59.762Z,10.70
2023-04-21T20:21:27.304Z,10.70
2023-04-21T20:23:54.044Z,10.60
2023-04-21T20:26:20.794Z,10.60
2023-04-21T20:28:47.696Z,10.60
2023-04-21T20:31:14.613Z,10.60
2023-04-21T20:33:41.467Z,10.50
2023-04-21T20:36:08.350Z,10.50
2023-04-21T20:38:35.307Z,10.50
2023-04-21T20:41:03.167Z,10.50
2023-04-21T20:43:32.912Z,10.40
2023-04-21T20:46:01.310Z,10.40
2023-04-21T20:48:28.144Z,10.30
2023-04-21T20:50:55.671Z,10.30
2023-04-21T20:53:23.147Z,10.30
2023-04-21T20:55:49.853Z,10.30
2023-04-21T20:58:16.904Z,10.20
2023-04-21T21:00:43.703Z,10.20
2023-04-21T21:03:11.803Z,10.10
2023-04-21T21:05:38.982Z,10.10
2023-04-21T21:08:06.947Z,10.10
2023-04-21T21:10:33.743Z,10.00
2023-04-21T21:13:00.381Z,10.10
2023-04-21T21:15:28.036Z,10.10
2023-04-21T21:17:54.691Z,10.00
2023-04-21T21:20:21.361Z,10.10
2023-04-21T21:22:47.948Z,10.10
2023-04-21T21:25:14.640Z,10.10
2023-04-21T21:27:41.316Z,10.00
2023-04-21T21:30:08.485Z,10.00
2023-04-21T21:32:35.121Z,10.00
2023-04-21T21:35:01.771Z,9.90
2023-04-21T21:37:28.385Z,9.80
2023-04-21T21:39:55.466Z,9.80
2023-04-21T21:42:22.573Z,9.80
2023-04-21T21:44:49.359Z,9.90
2023-04-21T21:47:17.377Z,9.80
2023-04-21T21:49:44.264Z,9.80
2023-04-21T21:52:10.974Z,9.80
2023-04-21T21:54:37.769Z,9.70
2023-04-21T21:57:04.495Z,9.70
2023-04-21T21:59:31.149Z,9.70
2023-04-21T22:01:57.800Z,9.70
2023-04-21T22:04:25.960Z,9.70
2023-04-21T22:06:52.704Z,9.70
2023-04-21T22:09:19.389Z,9.70
2023-04-21T22:11:46.152Z,9.70
2023-04-21T22:14:22.533Z,9.60
2023-04-21T22:16:50.874Z,9.50
2023-04-21T22:19:20.485Z,9.50
2023-04-21T22:21:47.510Z,9.50
2023-04-21T22:24:14.547Z,9.40
2023-04-21T22:26:41.940Z,9.30
2023-04-21T22:29:08.636Z,9.30
2023-04-21T22:31:35.453Z,9.30
2023-04-21T22:34:02.264Z,9.30
2023-04-21T22:36:29.041Z,9.40
2023-04-21T22:38:55.962Z,9.40
2023-04-21T22:41:23.006Z,9.30
2023-04-21T22:43:49.598Z,9.30
2023-04-21T22:46:16.327Z,9.30
2023-04-21T22:48:46.414Z,9.20
2023-04-21T22:51:14.329Z,9.30
2023-04-21T22:53:41.083Z,9.20
2023-04-21T22:56:07.751Z,9.20
2023-04-21T22:58:34.405Z,9.10
2023-04-21T23:01:01.769Z,9.10
2023-04-21T23:03:28.655Z,9.00
2023-04-21T23:05:55.370Z,9.00
2023-04-21T23:08:22.000Z,9.00
2023-04-21T23:10:48.784Z,9.00
2023-04-21T23:13:15.509Z,8.90
2023-04-21T23:15:42.110Z,8.90
2023-04-21T23:18:08.755Z,8.90
2023-04-21T23:20:35.842Z,8.80
2023-04-21T23:23:02.509Z,8.80
2023-04-21T23:25:29.159Z,8.80
2023-04-21T23:27:55.787Z,8.80
2023-04-21T23:30:22.510Z,8.70
2023-04-21T23:32:49.246Z,8.60
2023-04-21T23:35:16.078Z,8.60
2023-04-21T23:37:43.020Z,8.60
2023-04-21T23:40:12.401Z,8.50
2023-04-21T23:42:39.556Z,8.50
2023-04-21T23:45:06.796Z,8.40
2023-04-21T23:47:33.808Z,8.40
2023-04-21T23:50:00.701Z,8.30
2023-04-21T23:52:27.508Z,8.40
2023-04-21T23:54:54.269Z,8.40
2023-04-21T23:57:21.144Z,8.30
2023-04-21T23:59:47.824Z,8.40
